Time,TemperatureF,DewpointF,PressureIn,WindDirection,WindDirectionDegrees,WindSpeedMPH,WindSpeedGustMPH,Humidity,HourlyPrecipIn,Conditions,Clouds,dailyrainin,SoftwareType,DateUTC
2013-08-22 00:07:00,59.7,58.0,29.96,South,173,0.0,1.0,93,0.00,,,0.00,weatherlink.com 1.10,2013-08-22 07:07:00,
2013-08-22 00:22:00,59.9,58.0,29.96,South,170,0.0,1.0,93,0.00,,,0.00,weatherlink.com 1.10,2013-08-22 07:22:00,
2013-08-22 00:37:00,59.7,58.0,29.96,South,170,0.0,0.0,93,0.00,,,0.00,weatherlink.com 1.10,2013-08-22 07:37:00,
2013-08-22 00:52:00,59.7,58.0,29.95,South,170,0.0,0.0,93,0.00,,,0.00,weatherlink.com 1.10,2013-08-22 07:52:00,
2013-08-22 01:07:00,59.6,58.0,29.95,South,170,0.0,0.0,93,0.00,,,0.00,weatherlink.com 1.10,2013-08-22 08:07:00,
2013-08-22 01:22:00,59.5,58.0,29.96,South,170,0.0,1.0,93,0.00,,,0.00,weatherlink.com 1.10,2013-08-22 08:22:00,
2013-08-22 01:37:00,59.1,57.0,29.96,South,170,0.0,0.0,93,0.00,,,0.00,weatherlink.com 1.10,2013-08-22 08:37:00,
2013-08-22 01:52:00,59.0,57.0,29.95,South,170,0.0,1.0,94,0.00,,,0.00,weatherlink.com 1.10,2013-08-22 08:52:00,
2013-08-22 02:07:00,58.9,57.0,29.95,South,170,0.0,0.0,94,0.00,,,0.00,weatherlink.com 1.10,2013-08-22 09:07:00,
2013-08-22 02:22:00,58.6,57.0,29.95,South,170,0.0,0.0,94,0.00,,,0.00,weatherlink.com 1.10,2013-08-22 09:22:00,
2013-08-22 02:37:00,58.5,57.0,29.95,South,170,0.0,0.0,94,0.00,,,0.00,weatherlink.com 1.10,2013-08-22 09:37:00,
2013-08-22 02:52:00,58.5,57.0,29.95,South,170,0.0,0.0,94,0.00,,,0.00,weatherlink.com 1.10,2013-08-22 09:52:00,
2013-08-22 03:07:00,59.3,57.0,29.94,East,80,0.0,3.0,92,0.00,,,0.00,weatherlink.com 1.10,2013-08-22 10:07:00,
2013-08-22 03:22:00,59.5,57.0,29.94,ENE,78,0.0,1.0,91,0.00,,,0.00,weatherlink.com 1.10,2013-08-22 10:22:00,
2013-08-22 03:37:00,59.9,57.0,29.94,ESE,109,1.0,3.0,89,0.00,,,0.00,weatherlink.com 1.10,2013-08-22 10:37:00,
2013-08-22 05:37:00,58.5,55.0,29.93,East,101,0.0,0.0,88,0.00,,,0.00,weatherlink.com 1.10,2013-08-22 12:37:00,
2013-08-22 05:52:00,58.1,55.0,29.93,East,101,0.0,1.0,89,0.00,,,0.00,weatherlink.com 1.10,2013-08-22 12:52:00,
2013-08-22 06:07:00,57.6,55.0,29.93,East,101,0.0,0.0,90,0.00,,,0.00,weatherlink.com 1.10,2013-08-22 13:07:00,
2013-08-22 06:23:00,56.9,54.0,29.93,East,101,0.0,0.0,91,0.00,,,0.00,weatherlink.com 1.10,2013-08-22 13:23:00,
2013-08-22 06:38:00,56.7,55.0,29.93,East,101,0.0,1.0,92,0.00,,,0.00,weatherlink.com 1.10,2013-08-22 13:38:00,
2013-08-22 06:53:00,57.0,54.0,29.94,ESE,111,1.0,4.0,90,0.00,,,0.00,weatherlink.com 1.10,2013-08-22 13:53:00,
2013-08-22 07:08:00,57.6,54.0,29.93,ESE,119,0.0,2.0,88,0.00,,,0.00,weatherlink.com 1.10,2013-08-22 14:08:00,
2013-08-22 07:23:00,57.5,54.0,29.93,East,87,0.0,3.0,88,0.00,,,0.00,weatherlink.com 1.10,2013-08-22 14:23:00,
2013-08-22 07:38:00,58.7,55.0,29.93,ENE,62,2.0,3.0,86,0.00,,,0.00,weatherlink.com 1.10,2013-08-22 14:38:00,
2013-08-22 07:53:00,60.3,55.0,29.93,ENE,64,0.0,2.0,83,0.00,,,0.00,weatherlink.com 1.10,2013-08-22 14:53:00,
2013-08-22 08:08:00,60.9,55.0,29.93,ENE,61,2.0,5.0,81,0.00,,,0.00,weatherlink.com 1.10,2013-08-22 15:08:00,
2013-08-22 08:23:00,61.7,55.0,29.93,ESE,110,3.0,5.0,79,0.00,,,0.00,weatherlink.com 1.10,2013-08-22 15:23:00,
2013-08-22 08:38:00,62.5,55.0,29.92,East,85,1.0,3.0,77,0.00,,,0.00,weatherlink.com 1.10,2013-08-22 15:38:00,
2013-08-22 08:53:00,64.4,55.0,29.93,ESE,120,4.0,5.0,72,0.00,,,0.00,weatherlink.com 1.10,2013-08-22 15:53:00,
2013-08-22 09:08:00,65.5,55.0,29.92,SE,127,1.0,7.0,69,0.00,,,0.00,weatherlink.com 1.10,2013-08-22 16:08:00,
2013-08-22 09:23:00,66.6,55.0,29.92,ENE,76,1.0,5.0,67,0.00,,,0.00,weatherlink.com 1.10,2013-08-22 16:23:00,
2013-08-22 09:38:00,67.7,55.0,29.91,East,91,1.0,5.0,65,0.00,,,0.00,weatherlink.com 1.10,2013-08-22 16:38:00,
2013-08-22 09:53:00,68.6,56.0,29.91,East,91,0.0,2.0,64,0.00,,,0.00,weatherlink.com 1.10,2013-08-22 16:53:00,
2013-08-22 10:08:00,71.0,57.0,29.90,NE,53,0.0,3.0,61,0.00,,,0.00,weatherlink.com 1.10,2013-08-22 17:08:00,
2013-08-22 10:23:00,72.2,56.0,29.90,NE,53,0.0,1.0,57,0.00,,,0.00,weatherlink.com 1.10,2013-08-22 17:23:00,
2013-08-22 10:38:00,72.3,58.0,29.90,NE,53,0.0,2.0,61,0.00,,,0.00,weatherlink.com 1.10,2013-08-22 17:38:00,
2013-08-22 10:53:00,72.6,58.0,29.90,WSW,252,0.0,4.0,61,0.00,,,0.00,weatherlink.com 1.10,2013-08-22 17:53:00,
2013-08-22 11:08:00,73.3,57.0,29.90,WSW,252,0.0,1.0,58,0.00,,,0.00,weatherlink.com 1.10,2013-08-22 18:08:00,
2013-08-22 11:23:00,73.7,62.0,29.89,WSW,252,0.0,1.0,66,0.00,,,0.00,weatherlink.com 1.10,2013-08-22 18:23:00,
2013-08-22 11:38:00,75.3,59.0,29.89,SE,145,0.0,2.0,58,0.00,,,0.00,weatherlink.com 1.10,2013-08-22 18:38:00,
2013-08-22 11:53:00,75.6,59.0,29.88,SE,137,0.0,2.0,57,0.00,,,0.00,weatherlink.com 1.10,2013-08-22 18:53:00,
2013-08-22 12:08:00,74.5,60.0,29.88,SE,137,0.0,1.0,61,0.00,,,0.00,weatherlink.com 1.10,2013-08-22 19:08:00,
2013-08-22 12:23:00,74.5,60.0,29.88,SE,137,0.0,1.0,60,0.00,,,0.00,weatherlink.com 1.10,2013-08-22 19:23:00,
2013-08-22 12:39:00,76.4,61.0,29.87,SSE,167,0.0,2.0,60,0.00,,,0.00,weatherlink.com 1.10,2013-08-22 19:39:00,
2013-08-22 12:54:00,77.0,60.0,29.86,ESE,109,0.0,3.0,57,0.00,,,0.00,weatherlink.com 1.10,2013-08-22 19:54:00,
2013-08-22 13:09:00,77.5,62.0,29.86,ESE,109,0.0,1.0,59,0.00,,,0.00,weatherlink.com 1.10,2013-08-22 20:09:00,
2013-08-22 13:24:00,77.6,62.0,29.86,South,178,1.0,2.0,58,0.00,,,0.00,weatherlink.com 1.10,2013-08-22 20:24:00,
2013-08-22 13:39:00,78.7,62.0,29.86,ESE,112,0.0,3.0,57,0.00,,,0.00,weatherlink.com 1.10,2013-08-22 20:39:00,
2013-08-22 13:54:00,79.2,62.0,29.85,East,85,0.0,3.0,56,0.00,,,0.00,weatherlink.com 1.10,2013-08-22 20:54:00,
2013-08-22 14:09:00,79.9,64.0,29.84,East,96,0.0,2.0,58,0.00,,,0.00,weatherlink.com 1.10,2013-08-22 21:09:00,
2013-08-22 14:24:00,81.2,63.0,29.84,East,96,0.0,1.0,54,0.00,,,0.00,weatherlink.com 1.10,2013-08-22 21:24:00,
2013-08-22 14:39:00,81.4,63.0,29.84,East,94,0.0,3.0,54,0.00,,,0.00,weatherlink.com 1.10,2013-08-22 21:39:00,
2013-08-22 14:54:00,81.8,63.0,29.83,ENE,77,0.0,3.0,53,0.00,,,0.00,weatherlink.com 1.10,2013-08-22 21:54:00,
2013-08-22 15:09:00,81.5,60.0,29.83,ENE,75,0.0,3.0,49,0.00,,,0.00,weatherlink.com 1.10,2013-08-22 22:09:00,
2013-08-22 15:24:00,80.9,65.0,29.82,SSE,163,1.0,4.0,58,0.00,,,0.00,weatherlink.com 1.10,2013-08-22 22:24:00,
2013-08-22 15:39:00,80.3,64.0,29.82,East,91,0.0,2.0,58,0.00,,,0.00,weatherlink.com 1.10,2013-08-22 22:39:00,
2013-08-22 15:54:00,78.9,64.0,29.82,East,94,0.0,5.0,61,0.00,,,0.00,weatherlink.com 1.10,2013-08-22 22:54:00,
2013-08-22 16:09:00,77.5,66.0,29.81,East,94,1.0,1.0,67,0.00,,,0.00,weatherlink.com 1.10,2013-08-22 23:09:00,
2013-08-22 16:24:00,76.1,65.0,29.81,East,95,0.0,1.0,69,0.00,,,0.00,weatherlink.com 1.10,2013-08-22 23:24:00,
2013-08-22 16:39:00,75.1,65.0,29.81,East,95,1.0,1.0,70,0.00,,,0.00,weatherlink.com 1.10,2013-08-22 23:39:00,
2013-08-22 16:54:00,74.8,64.0,29.81,East,95,0.0,1.0,70,0.00,,,0.00,weatherlink.com 1.10,2013-08-22 23:54:00,
2013-08-22 17:09:00,74.3,63.0,29.81,East,95,0.0,1.0,69,0.00,,,0.00,weatherlink.com 1.10,2013-08-23 00:09:00,
2013-08-22 17:24:00,73.7,64.0,29.80,East,95,0.0,0.0,71,0.00,,,0.00,weatherlink.com 1.10,2013-08-23 00:24:00,
2013-08-22 17:39:00,73.1,64.0,29.80,East,95,0.0,0.0,72,0.00,,,0.00,weatherlink.com 1.10,2013-08-23 00:39:00,
2013-08-22 17:54:00,72.9,65.0,29.80,East,95,0.0,0.0,77,0.00,,,0.00,weatherlink.com 1.10,2013-08-23 00:54:00,
2013-08-22 18:09:00,72.5,64.0,29.80,East,95,0.0,0.0,74,0.00,,,0.00,weatherlink.com 1.10,2013-08-23 01:09:00,
2013-08-22 18:24:00,72.4,64.0,29.80,East,95,0.0,0.0,76,0.00,,,0.00,weatherlink.com 1.10,2013-08-23 01:24:00,
2013-08-22 18:39:00,71.8,65.0,29.80,East,95,0.0,0.0,79,0.00,,,0.00,weatherlink.com 1.10,2013-08-23 01:39:00,
2013-08-22 18:54:00,71.2,64.0,29.80,East,95,0.0,0.0,78,0.00,,,0.00,weatherlink.com 1.10,2013-08-23 01:54:00,
2013-08-22 19:09:00,70.6,63.0,29.80,East,95,0.0,0.0,78,0.00,,,0.00,weatherlink.com 1.10,2013-08-23 02:09:00,
2013-08-22 19:24:00,70.1,63.0,29.80,East,95,0.0,1.0,79,0.00,,,0.00,weatherlink.com 1.10,2013-08-23 02:24:00,
2013-08-22 19:39:00,69.4,63.0,29.81,East,95,0.0,0.0,81,0.00,,,0.00,weatherlink.com 1.10,2013-08-23 02:39:00,
2013-08-22 19:54:00,68.4,63.0,29.82,East,95,0.0,1.0,83,0.00,,,0.00,weatherlink.com 1.10,2013-08-23 02:54:00,
2013-08-22 20:09:00,67.6,63.0,29.82,East,95,0.0,0.0,84,0.00,,,0.00,weatherlink.com 1.10,2013-08-23 03:09:00,
2013-08-22 20:24:00,66.8,62.0,29.83,East,95,0.0,0.0,85,0.00,,,0.00,weatherlink.com 1.10,2013-08-23 03:24:00,
2013-08-22 20:39:00,66.2,62.0,29.83,East,95,0.0,0.0,86,0.00,,,0.00,weatherlink.com 1.10,2013-08-23 03:39:00,
2013-08-22 20:54:00,65.6,61.0,29.84,East,95,0.0,0.0,86,0.00,,,0.00,weatherlink.com 1.10,2013-08-23 03:54:00,
2013-08-22 21:09:00,64.9,61.0,29.85,East,95,0.0,0.0,87,0.00,,,0.00,weatherlink.com 1.10,2013-08-23 04:09:00,
2013-08-22 21:24:00,64.3,61.0,29.85,East,95,0.0,0.0,88,0.00,,,0.00,weatherlink.com 1.10,2013-08-23 04:24:00,
2013-08-22 21:39:00,63.8,61.0,29.85,East,95,0.0,0.0,89,0.00,,,0.00,weatherlink.com 1.10,2013-08-23 04:39:00,
2013-08-22 21:54:00,63.4,61.0,29.85,East,95,0.0,0.0,90,0.00,,,0.00,weatherlink.com 1.10,2013-08-23 04:54:00,
2013-08-22 22:09:00,63.1,60.0,29.84,East,95,0.0,0.0,90,0.00,,,0.00,weatherlink.com 1.10,2013-08-23 05:09:00,
2013-08-22 22:24:00,62.8,60.0,29.84,East,95,0.0,0.0,90,0.00,,,0.00,weatherlink.com 1.10,2013-08-23 05:24:00,
2013-08-22 22:39:00,62.6,60.0,29.84,East,95,0.0,0.0,91,0.00,,,0.00,weatherlink.com 1.10,2013-08-23 05:39:00,
2013-08-22 22:54:00,62.3,60.0,29.85,East,95,0.0,0.0,91,0.00,,,0.00,weatherlink.com 1.10,2013-08-23 05:54:00,
2013-08-22 23:09:00,62.0,59.0,29.85,East,95,0.0,0.0,91,0.00,,,0.00,weatherlink.com 1.10,2013-08-23 06:09:00,
2013-08-22 23:24:00,61.8,60.0,29.85,East,95,0.0,0.0,92,0.00,,,0.00,weatherlink.com 1.10,2013-08-23 06:24:00,
2013-08-22 23:39:00,61.6,59.0,29.85,East,95,0.0,0.0,92,0.00,,,0.00,weatherlink.com 1.10,2013-08-23 06:39:00,
2013-08-22 23:54:00,61.4,59.0,29.84,East,95,0.0,0.0,92,0.00,,,0.00,weatherlink.com 1.10,2013-08-23 06:54:00,